sensor_id;sensor_type;location;lat;lon;timestamp;P1;durP1;ratioP1;P2;durP2;ratioP2
65206;SDS011;58477;48.072;11.970;2023-03-13T00:01:08;5.60;;;4.40;;
65206;SDS011;58477;48.072;11.970;2023-03-13T00:03:36;4.53;;;4.07;;
65206;SDS011;58477;48.072;11.970;2023-03-13T00:06:02;7.10;;;4.40;;
65206;SDS011;58477;48.072;11.970;2023-03-13T00:08:27;5.00;;;4.50;;
65206;SDS011;58477;48.072;11.970;2023-03-13T00:10:54;6.10;;;4.60;;
65206;SDS011;58477;48.072;11.970;2023-03-13T00:13:20;5.63;;;4.25;;
65206;SDS011;58477;48.072;11.970;2023-03-13T00:15:46;7.97;;;4.60;;
65206;SDS011;58477;48.072;11.970;2023-03-13T00:18:11;5.95;;;4.68;;
65206;SDS011;58477;48.072;11.970;2023-03-13T00:20:37;9.00;;;5.45;;
65206;SDS011;58477;48.072;11.970;2023-03-13T00:23:02;6.60;;;4.53;;
65206;SDS011;58477;48.072;11.970;2023-03-13T00:25:28;6.22;;;5.07;;
65206;SDS011;58477;48.072;11.970;2023-03-13T00:27:53;6.82;;;5.43;;
65206;SDS011;58477;48.072;11.970;2023-03-13T00:30:19;7.75;;;5.65;;
65206;SDS011;58477;48.072;11.970;2023-03-13T00:32:44;6.00;;;5.05;;
65206;SDS011;58477;48.072;11.970;2023-03-13T00:35:11;7.95;;;5.38;;
65206;SDS011;58477;48.072;11.970;2023-03-13T00:37:37;6.05;;;4.75;;
65206;SDS011;58477;48.072;11.970;2023-03-13T00:40:03;6.70;;;5.03;;
65206;SDS011;58477;48.072;11.970;2023-03-13T00:42:30;7.70;;;5.10;;
65206;SDS011;58477;48.072;11.970;2023-03-13T00:44:55;8.90;;;5.50;;
65206;SDS011;58477;48.072;11.970;2023-03-13T00:47:22;10.00;;;5.70;;
65206;SDS011;58477;48.072;11.970;2023-03-13T00:49:47;6.80;;;5.38;;
65206;SDS011;58477;48.072;11.970;2023-03-13T00:52:13;6.25;;;5.28;;
65206;SDS011;58477;48.072;11.970;2023-03-13T00:54:39;9.07;;;5.78;;
65206;SDS011;58477;48.072;11.970;2023-03-13T00:57:05;6.97;;;5.65;;
65206;SDS011;58477;48.072;11.970;2023-03-13T00:59:30;7.82;;;5.97;;
65206;SDS011;58477;48.072;11.970;2023-03-13T01:01:57;6.55;;;5.43;;
65206;SDS011;58477;48.072;11.970;2023-03-13T01:04:22;6.00;;;5.13;;
65206;SDS011;58477;48.072;11.970;2023-03-13T01:06:48;8.68;;;5.28;;
65206;SDS011;58477;48.072;11.970;2023-03-13T01:09:14;6.68;;;5.00;;
65206;SDS011;58477;48.072;11.970;2023-03-13T01:11:41;7.15;;;5.65;;
65206;SDS011;58477;48.072;11.970;2023-03-13T01:14:09;10.77;;;5.00;;
65206;SDS011;58477;48.072;11.970;2023-03-13T01:16:37;6.80;;;4.68;;
65206;SDS011;58477;48.072;11.970;2023-03-13T01:19:07;7.25;;;5.10;;
65206;SDS011;58477;48.072;11.970;2023-03-13T01:21:34;6.65;;;4.97;;
65206;SDS011;58477;48.072;11.970;2023-03-13T01:24:00;7.57;;;4.95;;
65206;SDS011;58477;48.072;11.970;2023-03-13T01:26:26;7.15;;;4.68;;
65206;SDS011;58477;48.072;11.970;2023-03-13T01:28:52;7.13;;;4.65;;
65206;SDS011;58477;48.072;11.970;2023-03-13T01:31:20;4.50;;;3.88;;
65206;SDS011;58477;48.072;11.970;2023-03-13T01:33:52;5.97;;;4.57;;
65206;SDS011;58477;48.072;11.970;2023-03-13T01:36:19;5.65;;;4.47;;
65206;SDS011;58477;48.072;11.970;2023-03-13T01:38:49;5.45;;;4.35;;
65206;SDS011;58477;48.072;11.970;2023-03-13T01:41:16;6.43;;;4.57;;
65206;SDS011;58477;48.072;11.970;2023-03-13T01:43:42;6.00;;;4.20;;
65206;SDS011;58477;48.072;11.970;2023-03-13T01:46:16;5.80;;;4.20;;
65206;SDS011;58477;48.072;11.970;2023-03-13T01:51:29;6.97;;;4.55;;
65206;SDS011;58477;48.072;11.970;2023-03-13T01:54:18;6.75;;;5.30;;
65206;SDS011;58477;48.072;11.970;2023-03-13T01:59:43;5.63;;;5.07;;
65206;SDS011;58477;48.072;11.970;2023-03-13T02:02:38;5.53;;;4.40;;
65206;SDS011;58477;48.072;11.970;2023-03-13T02:05:06;6.90;;;4.70;;
65206;SDS011;58477;48.072;11.970;2023-03-13T02:07:34;6.70;;;5.00;;
65206;SDS011;58477;48.072;11.970;2023-03-13T02:10:06;8.55;;;4.85;;
65206;SDS011;58477;48.072;11.970;2023-03-13T02:12:34;7.82;;;5.20;;
65206;SDS011;58477;48.072;11.970;2023-03-13T02:15:07;6.78;;;5.35;;
65206;SDS011;58477;48.072;11.970;2023-03-13T02:17:35;6.38;;;5.03;;
65206;SDS011;58477;48.072;11.970;2023-03-13T02:20:03;7.15;;;5.40;;
65206;SDS011;58477;48.072;11.970;2023-03-13T02:30:23;10.32;;;6.95;;
65206;SDS011;58477;48.072;11.970;2023-03-13T02:32:49;10.18;;;6.32;;
65206;SDS011;58477;48.072;11.970;2023-03-13T02:35:16;8.40;;;6.10;;
65206;SDS011;58477;48.072;11.970;2023-03-13T02:37:45;11.13;;;6.28;;
65206;SDS011;58477;48.072;11.970;2023-03-13T02:40:20;9.25;;;6.50;;
65206;SDS011;58477;48.072;11.970;2023-03-13T02:42:49;8.23;;;6.47;;
65206;SDS011;58477;48.072;11.970;2023-03-13T02:45:16;9.07;;;6.43;;
65206;SDS011;58477;48.072;11.970;2023-03-13T02:47:43;6.93;;;5.95;;
65206;SDS011;58477;48.072;11.970;2023-03-13T02:50:09;9.95;;;6.40;;
65206;SDS011;58477;48.072;11.970;2023-03-13T02:52:37;9.60;;;6.57;;
65206;SDS011;58477;48.072;11.970;2023-03-13T02:55:16;8.43;;;5.53;;
65206;SDS011;58477;48.072;11.970;2023-03-13T02:57:47;10.25;;;6.57;;
65206;SDS011;58477;48.072;11.970;2023-03-13T03:00:13;9.32;;;6.57;;
65206;SDS011;58477;48.072;11.970;2023-03-13T03:02:41;7.72;;;6.50;;
65206;SDS011;58477;48.072;11.970;2023-03-13T03:05:07;10.20;;;7.07;;
65206;SDS011;58477;48.072;11.970;2023-03-13T03:07:33;9.35;;;6.57;;
65206;SDS011;58477;48.072;11.970;2023-03-13T03:09:59;10.20;;;7.80;;
65206;SDS011;58477;48.072;11.970;2023-03-13T03:12:24;7.25;;;4.53;;
65206;SDS011;58477;48.072;11.970;2023-03-13T03:14:50;11.60;;;7.70;;
65206;SDS011;58477;48.072;11.970;2023-03-13T03:17:16;9.52;;;7.70;;
65206;SDS011;58477;48.072;11.970;2023-03-13T03:19:42;9.70;;;7.18;;
65206;SDS011;58477;48.072;11.970;2023-03-13T03:22:08;7.63;;;5.85;;
65206;SDS011;58477;48.072;11.970;2023-03-13T03:24:33;10.60;;;6.85;;
65206;SDS011;58477;48.072;11.970;2023-03-13T03:26:58;10.63;;;7.05;;
65206;SDS011;58477;48.072;11.970;2023-03-13T03:29:29;10.52;;;7.03;;
65206;SDS011;58477;48.072;11.970;2023-03-13T03:31:56;9.45;;;7.30;;
65206;SDS011;58477;48.072;11.970;2023-03-13T03:34:21;14.23;;;6.72;;
65206;SDS011;58477;48.072;11.970;2023-03-13T03:36:48;10.93;;;7.18;;
65206;SDS011;58477;48.072;11.970;2023-03-13T03:39:13;9.48;;;6.53;;
65206;SDS011;58477;48.072;11.970;2023-03-13T03:41:39;9.27;;;7.05;;
65206;SDS011;58477;48.072;11.970;2023-03-13T03:44:05;9.20;;;7.15;;
65206;SDS011;58477;48.072;11.970;2023-03-13T03:46:52;9.32;;;6.55;;
65206;SDS011;58477;48.072;11.970;2023-03-13T03:49:19;9.80;;;5.63;;
65206;SDS011;58477;48.072;11.970;2023-03-13T03:51:44;9.80;;;6.13;;
65206;SDS011;58477;48.072;11.970;2023-03-13T03:54:10;9.80;;;6.22;;
65206;SDS011;58477;48.072;11.970;2023-03-13T03:56:36;9.43;;;6.20;;
65206;SDS011;58477;48.072;11.970;2023-03-13T03:59:03;11.82;;;7.00;;
65206;SDS011;58477;48.072;11.970;2023-03-13T04:01:41;11.68;;;7.97;;
65206;SDS011;58477;48.072;11.970;2023-03-13T04:04:08;12.63;;;6.95;;
65206;SDS011;58477;48.072;11.970;2023-03-13T04:06:34;9.57;;;7.03;;
65206;SDS011;58477;48.072;11.970;2023-03-13T04:09:01;8.25;;;6.63;;
65206;SDS011;58477;48.072;11.970;2023-03-13T04:11:28;7.43;;;5.88;;
65206;SDS011;58477;48.072;11.970;2023-03-13T04:13:54;9.50;;;6.97;;
65206;SDS011;58477;48.072;11.970;2023-03-13T04:16:20;9.35;;;6.75;;
65206;SDS011;58477;48.072;11.970;2023-03-13T04:18:46;9.73;;;6.38;;
65206;SDS011;58477;48.072;11.970;2023-03-13T04:21:13;7.47;;;5.45;;
65206;SDS011;58477;48.072;11.970;2023-03-13T04:23:43;8.18;;;6.22;;
65206;SDS011;58477;48.072;11.970;2023-03-13T04:26:09;14.10;;;6.97;;
65206;SDS011;58477;48.072;11.970;2023-03-13T04:28:36;9.75;;;7.20;;
65206;SDS011;58477;48.072;11.970;2023-03-13T04:31:04;8.77;;;6.68;;
65206;SDS011;58477;48.072;11.970;2023-03-13T04:33:38;10.48;;;6.65;;
65206;SDS011;58477;48.072;11.970;2023-03-13T04:36:16;10.75;;;7.65;;
65206;SDS011;58477;48.072;11.970;2023-03-13T04:39:04;10.90;;;7.72;;
65206;SDS011;58477;48.072;11.970;2023-03-13T04:41:56;8.27;;;6.47;;
65206;SDS011;58477;48.072;11.970;2023-03-13T04:44:40;8.68;;;5.65;;
65206;SDS011;58477;48.072;11.970;2023-03-13T04:47:32;11.80;;;7.55;;
65206;SDS011;58477;48.072;11.970;2023-03-13T04:50:09;11.50;;;7.82;;
65206;SDS011;58477;48.072;11.970;2023-03-13T04:52:58;11.35;;;8.05;;
65206;SDS011;58477;48.072;11.970;2023-03-13T04:55:43;13.50;;;8.50;;
65206;SDS011;58477;48.072;11.970;2023-03-13T04:58:34;13.55;;;8.90;;
65206;SDS011;58477;48.072;11.970;2023-03-13T05:01:25;9.60;;;7.55;;
65206;SDS011;58477;48.072;11.970;2023-03-13T05:04:09;12.95;;;8.25;;
65206;SDS011;58477;48.072;11.970;2023-03-13T05:06:35;9.35;;;6.45;;
65206;SDS011;58477;48.072;11.970;2023-03-13T05:09:16;9.80;;;6.70;;
65206;SDS011;58477;48.072;11.970;2023-03-13T05:11:54;10.27;;;6.63;;
65206;SDS011;58477;48.072;11.970;2023-03-13T05:14:30;10.40;;;7.18;;
65206;SDS011;58477;48.072;11.970;2023-03-13T05:17:11;11.05;;;7.20;;
65206;SDS011;58477;48.072;11.970;2023-03-13T05:19:56;9.15;;;6.63;;
65206;SDS011;58477;48.072;11.970;2023-03-13T05:22:33;11.25;;;6.40;;
65206;SDS011;58477;48.072;11.970;2023-03-13T05:25:36;10.05;;;5.97;;
65206;SDS011;58477;48.072;11.970;2023-03-13T05:28:21;8.60;;;6.10;;
65206;SDS011;58477;48.072;11.970;2023-03-13T05:31:06;10.35;;;6.60;;
65206;SDS011;58477;48.072;11.970;2023-03-13T05:33:56;6.15;;;4.43;;
65206;SDS011;58477;48.072;11.970;2023-03-13T05:36:51;6.63;;;5.15;;
65206;SDS011;58477;48.072;11.970;2023-03-13T05:39:16;7.28;;;5.72;;
65206;SDS011;58477;48.072;11.970;2023-03-13T05:41:59;9.27;;;5.93;;
65206;SDS011;58477;48.072;11.970;2023-03-13T05:44:50;11.07;;;6.47;;
65206;SDS011;58477;48.072;11.970;2023-03-13T05:47:45;6.68;;;5.00;;
65206;SDS011;58477;48.072;11.970;2023-03-13T05:50:16;7.20;;;5.70;;
65206;SDS011;58477;48.072;11.970;2023-03-13T05:52:57;8.02;;;5.60;;
65206;SDS011;58477;48.072;11.970;2023-03-13T05:55:39;7.90;;;6.00;;
65206;SDS011;58477;48.072;11.970;2023-03-13T05:58:20;8.50;;;6.10;;
65206;SDS011;58477;48.072;11.970;2023-03-13T06:01:05;9.75;;;6.30;;
65206;SDS011;58477;48.072;11.970;2023-03-13T06:03:48;7.30;;;5.25;;
65206;SDS011;58477;48.072;11.970;2023-03-13T06:06:16;8.95;;;4.85;;
65206;SDS011;58477;48.072;11.970;2023-03-13T06:08:45;7.80;;;5.55;;
65206;SDS011;58477;48.072;11.970;2023-03-13T06:11:10;6.07;;;4.55;;
65206;SDS011;58477;48.072;11.970;2023-03-13T06:13:36;3.78;;;3.35;;
65206;SDS011;58477;48.072;11.970;2023-03-13T06:16:09;8.50;;;6.10;;
65206;SDS011;58477;48.072;11.970;2023-03-13T06:18:46;6.75;;;5.55;;
65206;SDS011;58477;48.072;11.970;2023-03-13T06:21:12;8.65;;;6.05;;
65206;SDS011;58477;48.072;11.970;2023-03-13T06:23:37;8.55;;;6.28;;
65206;SDS011;58477;48.072;11.970;2023-03-13T06:26:02;7.55;;;5.85;;
65206;SDS011;58477;48.072;11.970;2023-03-13T06:28:28;11.05;;;6.55;;
65206;SDS011;58477;48.072;11.970;2023-03-13T06:30:54;10.25;;;6.78;;
65206;SDS011;58477;48.072;11.970;2023-03-13T06:33:19;11.05;;;6.50;;
65206;SDS011;58477;48.072;11.970;2023-03-13T06:35:45;7.75;;;5.97;;
65206;SDS011;58477;48.072;11.970;2023-03-13T06:38:11;7.50;;;5.85;;
65206;SDS011;58477;48.072;11.970;2023-03-13T06:40:36;8.07;;;5.85;;
65206;SDS011;58477;48.072;11.970;2023-03-13T06:43:02;7.43;;;5.15;;
65206;SDS011;58477;48.072;11.970;2023-03-13T06:45:27;5.78;;;5.07;;
65206;SDS011;58477;48.072;11.970;2023-03-13T06:47:52;7.90;;;5.30;;
65206;SDS011;58477;48.072;11.970;2023-03-13T06:50:18;13.98;;;5.50;;
65206;SDS011;58477;48.072;11.970;2023-03-13T06:52:44;7.40;;;5.30;;
65206;SDS011;58477;48.072;11.970;2023-03-13T06:55:10;6.47;;;5.05;;
65206;SDS011;58477;48.072;11.970;2023-03-13T06:57:36;7.05;;;5.05;;
65206;SDS011;58477;48.072;11.970;2023-03-13T07:00:02;5.90;;;4.50;;
65206;SDS011;58477;48.072;11.970;2023-03-13T07:02:30;7.97;;;5.57;;
65206;SDS011;58477;48.072;11.970;2023-03-13T07:04:56;6.93;;;5.30;;
65206;SDS011;58477;48.072;11.970;2023-03-13T07:07:21;6.75;;;4.95;;
65206;SDS011;58477;48.072;11.970;2023-03-13T07:09:47;7.10;;;5.10;;
65206;SDS011;58477;48.072;11.970;2023-03-13T07:12:12;8.05;;;5.85;;
65206;SDS011;58477;48.072;11.970;2023-03-13T07:14:37;7.13;;;5.07;;
65206;SDS011;58477;48.072;11.970;2023-03-13T07:17:03;9.10;;;6.07;;
65206;SDS011;58477;48.072;11.970;2023-03-13T07:19:28;8.10;;;5.90;;
65206;SDS011;58477;48.072;11.970;2023-03-13T07:21:53;7.35;;;5.93;;
65206;SDS011;58477;48.072;11.970;2023-03-13T07:24:20;7.43;;;5.45;;
65206;SDS011;58477;48.072;11.970;2023-03-13T07:26:46;5.78;;;4.95;;
65206;SDS011;58477;48.072;11.970;2023-03-13T07:29:12;7.30;;;5.20;;
65206;SDS011;58477;48.072;11.970;2023-03-13T07:31:37;9.10;;;6.13;;
65206;SDS011;58477;48.072;11.970;2023-03-13T07:34:03;7.43;;;6.00;;
65206;SDS011;58477;48.072;11.970;2023-03-13T07:36:29;9.15;;;6.10;;
65206;SDS011;58477;48.072;11.970;2023-03-13T07:38:54;7.90;;;5.57;;
65206;SDS011;58477;48.072;11.970;2023-03-13T07:41:20;7.10;;;5.03;;
65206;SDS011;58477;48.072;11.970;2023-03-13T07:43:46;7.65;;;5.50;;
65206;SDS011;58477;48.072;11.970;2023-03-13T07:46:12;7.28;;;4.40;;
65206;SDS011;58477;48.072;11.970;2023-03-13T07:48:40;6.65;;;5.00;;
65206;SDS011;58477;48.072;11.970;2023-03-13T07:51:09;6.93;;;5.05;;
65206;SDS011;58477;48.072;11.970;2023-03-13T07:53:36;7.38;;;5.32;;
65206;SDS011;58477;48.072;11.970;2023-03-13T07:56:03;5.85;;;4.70;;
65206;SDS011;58477;48.072;11.970;2023-03-13T07:58:34;6.40;;;5.22;;
65206;SDS011;58477;48.072;11.970;2023-03-13T08:01:06;5.82;;;4.82;;
65206;SDS011;58477;48.072;11.970;2023-03-13T08:03:35;5.10;;;4.60;;
65206;SDS011;58477;48.072;11.970;2023-03-13T08:06:02;6.53;;;5.05;;
65206;SDS011;58477;48.072;11.970;2023-03-13T08:08:29;6.28;;;5.22;;
65206;SDS011;58477;48.072;11.970;2023-03-13T08:11:02;6.45;;;5.00;;
65206;SDS011;58477;48.072;11.970;2023-03-13T08:13:29;6.88;;;4.63;;
65206;SDS011;58477;48.072;11.970;2023-03-13T08:16:02;6.57;;;5.47;;
65206;SDS011;58477;48.072;11.970;2023-03-13T08:18:27;8.43;;;6.20;;
65206;SDS011;58477;48.072;11.970;2023-03-13T08:20:53;6.60;;;5.40;;
65206;SDS011;58477;48.072;11.970;2023-03-13T08:23:18;6.80;;;5.20;;
65206;SDS011;58477;48.072;11.970;2023-03-13T08:25:44;5.90;;;4.93;;
65206;SDS011;58477;48.072;11.970;2023-03-13T08:28:09;8.70;;;5.30;;
65206;SDS011;58477;48.072;11.970;2023-03-13T08:30:35;6.45;;;4.55;;
65206;SDS011;58477;48.072;11.970;2023-03-13T08:33:00;6.28;;;4.93;;
65206;SDS011;58477;48.072;11.970;2023-03-13T08:35:27;8.45;;;4.50;;
65206;SDS011;58477;48.072;11.970;2023-03-13T08:37:53;6.28;;;4.40;;
65206;SDS011;58477;48.072;11.970;2023-03-13T08:40:18;8.43;;;4.60;;
65206;SDS011;58477;48.072;11.970;2023-03-13T08:42:43;4.82;;;4.22;;
65206;SDS011;58477;48.072;11.970;2023-03-13T08:45:09;5.93;;;4.38;;
65206;SDS011;58477;48.072;11.970;2023-03-13T08:47:34;5.85;;;4.60;;
65206;SDS011;58477;48.072;11.970;2023-03-13T08:50:00;6.32;;;4.68;;
65206;SDS011;58477;48.072;11.970;2023-03-13T08:52:26;5.90;;;4.80;;
65206;SDS011;58477;48.072;11.970;2023-03-13T08:54:51;5.40;;;4.65;;
65206;SDS011;58477;48.072;11.970;2023-03-13T08:57:17;6.13;;;4.53;;
65206;SDS011;58477;48.072;11.970;2023-03-13T08:59:42;6.40;;;4.25;;
65206;SDS011;58477;48.072;11.970;2023-03-13T09:02:08;5.40;;;4.22;;
65206;SDS011;58477;48.072;11.970;2023-03-13T09:04:34;6.45;;;4.50;;
65206;SDS011;58477;48.072;11.970;2023-03-13T09:06:59;5.07;;;4.43;;
65206;SDS011;58477;48.072;11.970;2023-03-13T09:09:24;5.47;;;4.32;;
65206;SDS011;58477;48.072;11.970;2023-03-13T09:11:50;6.05;;;4.25;;
65206;SDS011;58477;48.072;11.970;2023-03-13T09:14:15;5.97;;;4.38;;
65206;SDS011;58477;48.072;11.970;2023-03-13T09:16:41;6.00;;;4.45;;
65206;SDS011;58477;48.072;11.970;2023-03-13T09:19:07;5.55;;;4.07;;
65206;SDS011;58477;48.072;11.970;2023-03-13T09:21:33;6.18;;;4.63;;
65206;SDS011;58477;48.072;11.970;2023-03-13T09:23:59;5.15;;;4.35;;
65206;SDS011;58477;48.072;11.970;2023-03-13T09:26:25;4.88;;;4.10;;
65206;SDS011;58477;48.072;11.970;2023-03-13T09:28:51;5.90;;;3.95;;
65206;SDS011;58477;48.072;11.970;2023-03-13T09:31:18;5.32;;;3.80;;
65206;SDS011;58477;48.072;11.970;2023-03-13T09:33:49;5.47;;;3.40;;
65206;SDS011;58477;48.072;11.970;2023-03-13T09:36:15;4.03;;;3.60;;
65206;SDS011;58477;48.072;11.970;2023-03-13T09:38:42;3.88;;;3.55;;
65206;SDS011;58477;48.072;11.970;2023-03-13T09:43:59;3.67;;;2.83;;
65206;SDS011;58477;48.072;11.970;2023-03-13T09:49:14;3.30;;;3.00;;
65206;SDS011;58477;48.072;11.970;2023-03-13T09:51:52;3.25;;;2.95;;
65206;SDS011;58477;48.072;11.970;2023-03-13T09:54:25;5.07;;;2.90;;
65206;SDS011;58477;48.072;11.970;2023-03-13T10:02:15;3.63;;;2.28;;
65206;SDS011;58477;48.072;11.970;2023-03-13T10:04:47;2.58;;;2.38;;
65206;SDS011;58477;48.072;11.970;2023-03-13T10:07:17;2.80;;;2.45;;
65206;SDS011;58477;48.072;11.970;2023-03-13T10:09:44;2.72;;;2.35;;
65206;SDS011;58477;48.072;11.970;2023-03-13T10:14:51;2.25;;;2.05;;
65206;SDS011;58477;48.072;11.970;2023-03-13T10:17:37;2.40;;;1.90;;
65206;SDS011;58477;48.072;11.970;2023-03-13T10:22:34;2.67;;;2.20;;
65206;SDS011;58477;48.072;11.970;2023-03-13T10:25:16;2.65;;;2.05;;
65206;SDS011;58477;48.072;11.970;2023-03-13T10:27:49;2.25;;;2.05;;
65206;SDS011;58477;48.072;11.970;2023-03-13T10:30:20;3.08;;;1.80;;
65206;SDS011;58477;48.072;11.970;2023-03-13T10:32:48;1.40;;;1.30;;
65206;SDS011;58477;48.072;11.970;2023-03-13T10:35:21;1.70;;;1.60;;
65206;SDS011;58477;48.072;11.970;2023-03-13T10:37:48;1.83;;;1.42;;
65206;SDS011;58477;48.072;11.970;2023-03-13T10:40:19;1.77;;;1.67;;
65206;SDS011;58477;48.072;11.970;2023-03-13T10:42:47;3.38;;;1.75;;
65206;SDS011;58477;48.072;11.970;2023-03-13T10:45:18;1.70;;;1.60;;
65206;SDS011;58477;48.072;11.970;2023-03-13T10:47:52;1.30;;;1.20;;
65206;SDS011;58477;48.072;11.970;2023-03-13T10:50:24;1.65;;;1.50;;
65206;SDS011;58477;48.072;11.970;2023-03-13T10:52:51;2.22;;;2.03;;
65206;SDS011;58477;48.072;11.970;2023-03-13T10:55:18;2.55;;;1.90;;
65206;SDS011;58477;48.072;11.970;2023-03-13T10:57:56;2.22;;;1.95;;
65206;SDS011;58477;48.072;11.970;2023-03-13T11:00:37;1.60;;;1.50;;
65206;SDS011;58477;48.072;11.970;2023-03-13T11:03:15;2.03;;;1.67;;
65206;SDS011;58477;48.072;11.970;2023-03-13T11:06:04;1.70;;;1.60;;
65206;SDS011;58477;48.072;11.970;2023-03-13T11:08:33;3.35;;;1.70;;
65206;SDS011;58477;48.072;11.970;2023-03-13T11:11:01;1.40;;;1.30;;
65206;SDS011;58477;48.072;11.970;2023-03-13T11:13:36;1.80;;;1.52;;
65206;SDS011;58477;48.072;11.970;2023-03-13T11:21:27;1.35;;;1.25;;
65206;SDS011;58477;48.072;11.970;2023-03-13T11:24:05;3.05;;;1.15;;
65206;SDS011;58477;48.072;11.970;2023-03-13T11:26:38;1.35;;;1.25;;
65206;SDS011;58477;48.072;11.970;2023-03-13T11:29:23;1.17;;;1.13;;
65206;SDS011;58477;48.072;11.970;2023-03-13T11:32:02;1.25;;;1.10;;
65206;SDS011;58477;48.072;11.970;2023-03-13T11:34:39;2.25;;;1.40;;
65206;SDS011;58477;48.072;11.970;2023-03-13T11:37:12;1.30;;;1.20;;
65206;SDS011;58477;48.072;11.970;2023-03-13T11:58:22;1.08;;;1.08;;
65206;SDS011;58477;48.072;11.970;2023-03-13T12:01:07;2.28;;;1.33;;
65206;SDS011;58477;48.072;11.970;2023-03-13T12:06:25;1.60;;;0.95;;
65206;SDS011;58477;48.072;11.970;2023-03-13T12:11:31;1.20;;;1.10;;
65206;SDS011;58477;48.072;11.970;2023-03-13T12:17:05;0.57;;;0.57;;
65206;SDS011;58477;48.072;11.970;2023-03-13T12:19:38;0.60;;;0.60;;
65206;SDS011;58477;48.072;11.970;2023-03-13T12:22:20;3.40;;;0.70;;
65206;SDS011;58477;48.072;11.970;2023-03-13T12:27:25;0.65;;;0.50;;
65206;SDS011;58477;48.072;11.970;2023-03-13T12:29:59;1.40;;;0.60;;
65206;SDS011;58477;48.072;11.970;2023-03-13T12:32:36;3.45;;;0.90;;
65206;SDS011;58477;48.072;11.970;2023-03-13T12:35:36;1.02;;;0.70;;
65206;SDS011;58477;48.072;11.970;2023-03-13T12:43:45;0.60;;;0.60;;
65206;SDS011;58477;48.072;11.970;2023-03-13T12:51:33;1.23;;;0.60;;
65206;SDS011;58477;48.072;11.970;2023-03-13T12:59:22;1.20;;;0.50;;
65206;SDS011;58477;48.072;11.970;2023-03-13T13:01:52;1.13;;;0.60;;
65206;SDS011;58477;48.072;11.970;2023-03-13T13:04:21;0.70;;;0.60;;
65206;SDS011;58477;48.072;11.970;2023-03-13T13:06:49;1.40;;;0.50;;
65206;SDS011;58477;48.072;11.970;2023-03-13T13:09:37;1.10;;;0.70;;
65206;SDS011;58477;48.072;11.970;2023-03-13T13:12:24;0.75;;;0.68;;
65206;SDS011;58477;48.072;11.970;2023-03-13T13:19:48;0.85;;;0.50;;
65206;SDS011;58477;48.072;11.970;2023-03-13T13:32:42;3.65;;;0.60;;
65206;SDS011;58477;48.072;11.970;2023-03-13T13:37:37;0.68;;;0.60;;
65206;SDS011;58477;48.072;11.970;2023-03-13T13:40:20;2.60;;;0.50;;
65206;SDS011;58477;48.072;11.970;2023-03-13T13:42:51;0.90;;;0.55;;
65206;SDS011;58477;48.072;11.970;2023-03-13T13:53:42;0.50;;;0.50;;
65206;SDS011;58477;48.072;11.970;2023-03-13T13:58:56;0.93;;;0.60;;
65206;SDS011;58477;48.072;11.970;2023-03-13T14:01:23;3.58;;;0.52;;
65206;SDS011;58477;48.072;11.970;2023-03-13T14:03:49;1.25;;;0.80;;
65206;SDS011;58477;48.072;11.970;2023-03-13T14:06:18;2.35;;;0.80;;
65206;SDS011;58477;48.072;11.970;2023-03-13T14:08:47;1.48;;;0.73;;
65206;SDS011;58477;48.072;11.970;2023-03-13T14:11:32;1.95;;;1.00;;
65206;SDS011;58477;48.072;11.970;2023-03-13T14:14:08;0.70;;;0.70;;
65206;SDS011;58477;48.072;11.970;2023-03-13T14:16:33;5.80;;;0.77;;
65206;SDS011;58477;48.072;11.970;2023-03-13T14:19:01;2.72;;;0.73;;
65206;SDS011;58477;48.072;11.970;2023-03-13T14:21:26;7.43;;;0.90;;
65206;SDS011;58477;48.072;11.970;2023-03-13T14:23:52;0.82;;;0.80;;
65206;SDS011;58477;48.072;11.970;2023-03-13T14:26:22;0.80;;;0.75;;
65206;SDS011;58477;48.072;11.970;2023-03-13T14:28:53;0.75;;;0.75;;
65206;SDS011;58477;48.072;11.970;2023-03-13T14:34:02;0.75;;;0.65;;
65206;SDS011;58477;48.072;11.970;2023-03-13T14:36:45;2.15;;;0.75;;
65206;SDS011;58477;48.072;11.970;2023-03-13T14:39:15;2.25;;;0.80;;
65206;SDS011;58477;48.072;11.970;2023-03-13T14:42:11;1.23;;;0.73;;
65206;SDS011;58477;48.072;11.970;2023-03-13T14:44:38;0.73;;;0.73;;
65206;SDS011;58477;48.072;11.970;2023-03-13T14:47:08;1.80;;;0.80;;
65206;SDS011;58477;48.072;11.970;2023-03-13T14:50:02;1.77;;;0.98;;
65206;SDS011;58477;48.072;11.970;2023-03-13T14:52:30;2.28;;;0.80;;
65206;SDS011;58477;48.072;11.970;2023-03-13T14:57:26;0.77;;;0.75;;
65206;SDS011;58477;48.072;11.970;2023-03-13T14:59:53;1.02;;;0.93;;
65206;SDS011;58477;48.072;11.970;2023-03-13T15:02:26;2.28;;;0.90;;
65206;SDS011;58477;48.072;11.970;2023-03-13T15:04:56;1.38;;;0.90;;
65206;SDS011;58477;48.072;11.970;2023-03-13T15:07:37;5.65;;;0.90;;
65206;SDS011;58477;48.072;11.970;2023-03-13T15:10:18;1.05;;;1.05;;
65206;SDS011;58477;48.072;11.970;2023-03-13T15:12:45;2.35;;;1.00;;
65206;SDS011;58477;48.072;11.970;2023-03-13T15:15:11;3.00;;;1.10;;
65206;SDS011;58477;48.072;11.970;2023-03-13T15:17:37;1.48;;;1.10;;
65206;SDS011;58477;48.072;11.970;2023-03-13T15:20:02;1.25;;;1.10;;
65206;SDS011;58477;48.072;11.970;2023-03-13T15:22:33;1.45;;;1.02;;
65206;SDS011;58477;48.072;11.970;2023-03-13T15:25:00;1.25;;;1.00;;
65206;SDS011;58477;48.072;11.970;2023-03-13T15:27:26;1.25;;;0.85;;
65206;SDS011;58477;48.072;11.970;2023-03-13T15:29:52;1.60;;;1.15;;
65206;SDS011;58477;48.072;11.970;2023-03-13T15:32:24;2.17;;;1.00;;
65206;SDS011;58477;48.072;11.970;2023-03-13T15:34:51;2.53;;;1.13;;
65206;SDS011;58477;48.072;11.970;2023-03-13T15:37:17;3.97;;;1.27;;
65206;SDS011;58477;48.072;11.970;2023-03-13T15:39:43;8.60;;;1.10;;
65206;SDS011;58477;48.072;11.970;2023-03-13T15:42:09;3.08;;;1.10;;
65206;SDS011;58477;48.072;11.970;2023-03-13T15:44:34;3.72;;;1.60;;
65206;SDS011;58477;48.072;11.970;2023-03-13T15:47:00;3.88;;;2.03;;
65206;SDS011;58477;48.072;11.970;2023-03-13T15:49:25;5.70;;;1.70;;
65206;SDS011;58477;48.072;11.970;2023-03-13T15:51:51;2.40;;;1.50;;
65206;SDS011;58477;48.072;11.970;2023-03-13T15:54:17;2.08;;;1.60;;
65206;SDS011;58477;48.072;11.970;2023-03-13T15:56:43;1.50;;;1.20;;
65206;SDS011;58477;48.072;11.970;2023-03-13T15:59:11;2.25;;;1.30;;
65206;SDS011;58477;48.072;11.970;2023-03-13T16:01:38;3.67;;;1.20;;
65206;SDS011;58477;48.072;11.970;2023-03-13T16:04:04;1.70;;;1.35;;
65206;SDS011;58477;48.072;11.970;2023-03-13T16:06:30;3.30;;;1.20;;
65206;SDS011;58477;48.072;11.970;2023-03-13T16:08:59;3.53;;;1.30;;
65206;SDS011;58477;48.072;11.970;2023-03-13T16:11:26;1.80;;;1.33;;
65206;SDS011;58477;48.072;11.970;2023-03-13T16:13:53;2.60;;;1.17;;
65206;SDS011;58477;48.072;11.970;2023-03-13T16:16:20;3.03;;;0.93;;
65206;SDS011;58477;48.072;11.970;2023-03-13T16:18:48;1.98;;;0.93;;
65206;SDS011;58477;48.072;11.970;2023-03-13T16:21:22;1.15;;;1.02;;
65206;SDS011;58477;48.072;11.970;2023-03-13T16:23:50;1.20;;;1.10;;
65206;SDS011;58477;48.072;11.970;2023-03-13T16:26:23;2.80;;;1.00;;
65206;SDS011;58477;48.072;11.970;2023-03-13T16:28:50;7.60;;;1.50;;
65206;SDS011;58477;48.072;11.970;2023-03-13T16:31:26;0.90;;;0.90;;
65206;SDS011;58477;48.072;11.970;2023-03-13T16:33:54;0.93;;;0.90;;
65206;SDS011;58477;48.072;11.970;2023-03-13T16:36:21;1.98;;;1.15;;
65206;SDS011;58477;48.072;11.970;2023-03-13T16:38:55;3.08;;;1.20;;
65206;SDS011;58477;48.072;11.970;2023-03-13T16:41:22;2.28;;;1.10;;
65206;SDS011;58477;48.072;11.970;2023-03-13T16:43:50;1.08;;;0.98;;
65206;SDS011;58477;48.072;11.970;2023-03-13T16:46:16;4.97;;;1.50;;